Time,TemperatureF,DewpointF,PressureIn,WindDirection,WindDirectionDegrees,WindSpeedMPH,WindSpeedGustMPH,Humidity,HourlyPrecipIn,Conditions,Clouds,dailyrainin,SolarRadiationWatts/m^2,SoftwareType,DateUTC
2013-09-17 00:44:00,63.0,61.0,-100.00,WSW,249,0.0,5.0,92,0.00,,,0.00,0.000000,,2013-09-17 04:44:00,
2013-09-17 00:54:00,63.0,61.0,-100.00,WSW,249,0.0,5.0,92,0.00,,,0.00,0.000000,,2013-09-17 04:54:00,
2013-09-17 01:04:00,63.0,61.0,-100.00,WSW,249,0.0,5.0,92,0.00,,,0.00,0.000000,,2013-09-17 05:04:00,
2013-09-17 01:42:00,64.0,62.0,-100.00,SE,125,2.0,6.0,92,0.00,,,0.00,0.000000,,2013-09-17 05:42:00,
2013-09-17 01:52:00,64.0,62.0,-100.00,SE,125,2.0,6.0,92,0.00,,,0.00,0.000000,,2013-09-17 05:52:00,
2013-09-17 02:02:00,64.0,62.0,-100.00,SE,125,2.0,6.0,92,0.00,,,0.00,0.000000,,2013-09-17 06:02:00,
2013-09-17 02:42:00,64.0,62.0,-100.00,West,276,0.0,7.0,92,0.00,,,0.00,0.000000,,2013-09-17 06:42:00,
2013-09-17 02:52:00,64.0,62.0,-100.00,West,276,0.0,7.0,92,0.00,,,0.00,0.000000,,2013-09-17 06:52:00,
2013-09-17 03:02:00,64.0,62.0,-100.00,West,276,0.0,7.0,92,0.00,,,0.00,0.000000,,2013-09-17 07:02:00,
2013-09-17 03:43:00,62.0,62.0,-100.00,WSW,240,0.0,2.0,99,0.00,,,0.00,0.000000,,2013-09-17 07:43:00,
2013-09-17 03:52:00,62.0,62.0,-100.00,WSW,240,0.0,2.0,99,0.00,,,0.00,0.000000,,2013-09-17 07:52:00,
2013-09-17 04:02:00,62.0,62.0,-100.00,WSW,240,0.0,2.0,99,0.00,,,0.00,0.000000,,2013-09-17 08:02:00,
2013-09-17 04:42:00,62.0,61.0,-100.00,East,80,1.0,4.0,98,0.00,,,0.00,0.000000,,2013-09-17 08:42:00,
2013-09-17 04:52:00,62.0,61.0,-100.00,East,80,1.0,4.0,98,0.00,,,0.00,0.000000,,2013-09-17 08:52:00,
2013-09-17 05:02:00,62.0,61.0,-100.00,East,80,1.0,4.0,98,0.00,,,0.00,0.000000,,2013-09-17 09:02:00,
2013-09-17 05:43:00,60.0,60.0,-100.00,North,3,0.0,3.0,100,0.00,,,0.00,0.000000,,2013-09-17 09:43:00,
2013-09-17 05:53:00,60.0,60.0,-100.00,North,3,0.0,3.0,100,0.00,,,0.00,0.000000,,2013-09-17 09:53:00,
2013-09-17 06:03:00,60.0,60.0,-100.00,North,3,0.0,3.0,100,0.00,,,0.00,0.000000,,2013-09-17 10:03:00,
2013-09-17 06:42:00,60.0,60.0,-100.00,NNW,340,0.0,3.0,100,0.00,,,0.00,0.000000,,2013-09-17 10:42:00,
2013-09-17 06:53:00,60.0,60.0,-100.00,NNW,340,0.0,3.0,100,0.00,,,0.00,0.000000,,2013-09-17 10:53:00,
2013-09-17 07:03:00,60.0,60.0,-100.00,NNW,340,0.0,3.0,100,0.00,,,0.00,0.000000,,2013-09-17 11:03:00,
2013-09-17 07:43:00,60.0,60.0,-100.00,SW,226,1.0,2.0,100,0.00,,,0.00,0.000000,,2013-09-17 11:43:00,
2013-09-17 07:52:00,60.0,60.0,-100.00,SW,226,1.0,2.0,100,0.00,,,0.00,0.000000,,2013-09-17 11:52:00,
2013-09-17 08:02:00,60.0,60.0,-100.00,SW,226,1.0,2.0,100,0.00,,,0.00,0.000000,,2013-09-17 12:02:00,
2013-09-17 08:42:00,60.0,60.0,-100.00,WSW,246,0.0,4.0,100,0.00,,,0.00,13.000000,,2013-09-17 12:42:00,
2013-09-17 08:52:00,60.0,60.0,-100.00,WSW,246,0.0,4.0,100,0.00,,,0.00,13.000000,,2013-09-17 12:52:00,
2013-09-17 09:02:00,60.0,60.0,-100.00,WSW,246,0.0,4.0,100,0.00,,,0.00,13.000000,,2013-09-17 13:02:00,
2013-09-17 09:42:00,69.0,61.0,-100.00,SE,146,4.0,7.0,75,0.00,,,0.00,204.000000,,2013-09-17 13:42:00,
2013-09-17 09:52:00,69.0,61.0,-100.00,SE,146,4.0,7.0,75,0.00,,,0.00,204.000000,,2013-09-17 13:52:00,
2013-09-17 10:02:00,69.0,61.0,-100.00,SE,146,4.0,7.0,75,0.00,,,0.00,204.000000,,2013-09-17 14:02:00,
2013-09-17 10:42:00,71.0,61.0,-100.00,SE,136,5.0,10.0,70,0.00,,,0.00,355.000000,,2013-09-17 14:42:00,
2013-09-17 10:52:00,71.0,61.0,-100.00,SE,136,5.0,10.0,70,0.00,,,0.00,355.000000,,2013-09-17 14:52:00,
2013-09-17 11:02:00,71.0,61.0,-100.00,SE,136,5.0,10.0,70,0.00,,,0.00,355.000000,,2013-09-17 15:02:00,
2013-09-17 11:44:00,74.0,61.0,-100.00,SE,138,7.0,11.0,65,0.00,,,0.00,547.000000,,2013-09-17 15:44:00,
2013-09-17 11:53:00,74.0,61.0,-100.00,SE,138,7.0,11.0,65,0.00,,,0.00,547.000000,,2013-09-17 15:53:00,
2013-09-17 12:03:00,74.0,61.0,-100.00,SE,138,7.0,11.0,65,0.00,,,0.00,547.000000,,2013-09-17 16:03:00,
2013-09-17 12:42:00,76.0,62.0,-100.00,ESE,111,5.0,12.0,63,0.00,,,0.00,711.000000,,2013-09-17 16:42:00,
2013-09-17 12:54:00,76.0,62.0,-100.00,ESE,111,5.0,12.0,63,0.00,,,0.00,711.000000,,2013-09-17 16:54:00,
2013-09-17 13:03:00,76.0,62.0,-100.00,ESE,111,5.0,12.0,63,0.00,,,0.00,711.000000,,2013-09-17 17:03:00,
2013-09-17 13:43:00,75.0,62.0,-100.00,SSE,148,3.0,9.0,65,0.00,,,0.00,594.000000,,2013-09-17 17:43:00,
2013-09-17 13:53:00,75.0,62.0,-100.00,SSE,148,3.0,9.0,65,0.00,,,0.00,594.000000,,2013-09-17 17:53:00,
2013-09-17 14:02:00,75.0,62.0,-100.00,SSE,148,3.0,9.0,65,0.00,,,0.00,594.000000,,2013-09-17 18:02:00,
2013-09-17 14:42:00,71.0,60.0,-100.00,SE,143,4.0,9.0,69,0.00,,,0.00,173.000000,,2013-09-17 18:42:00,
2013-09-17 15:42:00,72.0,59.0,-100.00,SE,145,6.0,12.0,64,-99.99,,,0.00,180.000000,,2013-09-17 19:42:00,
2013-09-17 15:52:00,72.0,59.0,-100.00,SE,145,6.0,12.0,64,-99.99,,,0.00,180.000000,,2013-09-17 19:52:00,
2013-09-17 16:02:00,72.0,59.0,-100.00,SE,145,6.0,12.0,64,-99.99,,,0.00,180.000000,,2013-09-17 20:02:00,
2013-09-17 16:42:00,77.0,62.0,-100.00,SE,140,4.0,14.0,59,-99.99,,,0.00,566.000000,,2013-09-17 20:42:00,
2013-09-17 16:52:00,77.0,62.0,-100.00,SE,140,4.0,14.0,59,-99.99,,,0.00,566.000000,,2013-09-17 20:52:00,
2013-09-17 17:02:00,77.0,62.0,-100.00,SE,140,4.0,14.0,59,-99.99,,,0.00,566.000000,,2013-09-17 21:02:00,
2013-09-17 17:44:00,76.0,61.0,-100.00,SE,133,5.0,10.0,59,0.00,,,0.00,474.000000,,2013-09-17 21:44:00,
2013-09-17 17:54:00,76.0,61.0,-100.00,SE,133,5.0,10.0,59,0.00,,,0.00,474.000000,,2013-09-17 21:54:00,
2013-09-17 18:04:00,76.0,61.0,-100.00,SE,133,5.0,10.0,59,0.00,,,0.00,474.000000,,2013-09-17 22:04:00,
2013-09-17 18:44:00,73.0,61.0,-100.00,SSE,157,4.0,10.0,67,0.00,,,0.00,234.000000,,2013-09-17 22:44:00,
2013-09-17 18:53:00,73.0,61.0,-100.00,SSE,157,4.0,10.0,67,0.00,,,0.00,234.000000,,2013-09-17 22:53:00,
2013-09-17 19:03:00,73.0,61.0,-100.00,SSE,157,4.0,10.0,67,0.00,,,0.00,234.000000,,2013-09-17 23:03:00,
2013-09-17 19:42:00,70.0,61.0,-100.00,SE,140,2.0,7.0,74,0.00,,,0.00,68.000000,,2013-09-17 23:42:00,
2013-09-17 19:52:00,70.0,61.0,-100.00,SE,140,2.0,7.0,74,0.00,,,0.00,68.000000,,2013-09-17 23:52:00,
2013-09-17 20:03:00,70.0,61.0,-100.00,SE,140,2.0,7.0,74,0.00,,,0.00,68.000000,,2013-09-18 00:03:00,
2013-09-17 20:42:00,67.0,61.0,-100.00,SE,137,3.0,8.0,80,0.00,,,0.00,10.000000,,2013-09-18 00:42:00,
2013-09-17 20:52:00,67.0,61.0,-100.00,SE,137,3.0,8.0,80,0.00,,,0.00,10.000000,,2013-09-18 00:52:00,
2013-09-17 21:02:00,67.0,61.0,-100.00,SE,137,3.0,8.0,80,0.00,,,0.00,10.000000,,2013-09-18 01:02:00,
2013-09-17 21:42:00,67.0,57.0,-100.00,SE,138,5.0,11.0,71,0.00,,,0.00,0.000000,,2013-09-18 01:42:00,
2013-09-17 21:53:00,67.0,57.0,-100.00,SE,138,5.0,11.0,71,0.00,,,0.00,0.000000,,2013-09-18 01:53:00,
2013-09-17 22:03:00,67.0,57.0,-100.00,SE,138,5.0,11.0,71,0.00,,,0.00,0.000000,,2013-09-18 02:03:00,
2013-09-17 22:43:00,65.0,56.0,-100.00,SSE,150,6.0,14.0,72,0.00,,,0.00,0.000000,,2013-09-18 02:43:00,
2013-09-17 22:52:00,65.0,56.0,-100.00,SSE,150,6.0,14.0,72,0.00,,,0.00,0.000000,,2013-09-18 02:52:00,
2013-09-17 23:02:00,65.0,56.0,-100.00,SSE,150,6.0,14.0,72,0.00,,,0.00,0.000000,,2013-09-18 03:02:00,
2013-09-17 23:44:00,64.0,55.0,-100.00,SE,139,6.0,14.0,73,0.00,,,0.00,0.000000,,2013-09-18 03:44:00,
2013-09-17 23:55:00,64.0,55.0,-100.00,SE,139,6.0,14.0,73,0.00,,,0.00,0.000000,,2013-09-18 03:55:00,